Аэропорт
Шымкент (UAII)

 UAII / CIT
ЗЦ Центральная Азия
Шымкент (UAII)
Шымкент (UAII)
 42.36420, 69.47890  / 1385 ft

 UAII 250800Z 15002MPS 090V200 CAVOK 18/05 Q1017 R10/0///70 NOSIG RMK QFE727/0970
 TAF AMD UAII 250124Z 2501/2524 16003G08MPS 3100 BR SCT040 BKN100 TX15/2507Z TN04/2501Z TEMPO 2501/2503 12004MPS 0300 SHRA FG BKN007 OVC030CB BECMG 2505/2507 08003G08MPS 6000 NSW TEMPO 2507/2515 05005G10MPS -SHRA BKN030CB TEMPO 2515/2524 VRB01MPS 0500 FG VV002
показать схемы
Название сценария Тип сценария Flight Simulator 9 Flight Simulator X Prepar3D v2 Prepar3D v3 Prepar3D v4 xPlane
Recommended scenery for FS9 бесплатный
Recommended scenery for FSX бесплатный


2020 © VATRUS division (Privacy Policy)